Time;durP1;ratioP1;P1;durP2;ratioP2;P2;SDS_P1;SDS_P2;PMS_P1;PMS_P2;Temp;Humidity;BMP_temperature;BMP_pressure;BME280_temperature;BME280_humidity;BME280_pressure;Samples;Min_cycle;Max_cycle;Signal;HPM_P1;HPM_P2
2023/09/26 00:02:46;;;;;;;8.90;6.57;;;22.30;99.90;;;;;;6209591;28;89043;-69
2023/09/26 00:05:49;;;;;;;9.90;6.70;;;22.30;99.90;;;;;;6232430;28;89544;-69
2023/09/26 00:09:20;;;;;;;9.98;6.97;;;22.30;99.90;;;;;;6233118;28;89055;-69
2023/09/26 00:12:22;;;;;;;7.22;6.50;;;22.30;99.90;;;;;;6241225;28;89162;-68
2023/09/26 00:15:46;;;;;;;7.03;6.22;;;22.40;99.90;;;;;;6225626;28;89157;-68
2023/09/26 00:18:48;;;;;;;7.78;6.43;;;22.30;99.90;;;;;;6230710;28;88234;-69
2023/09/26 00:21:51;;;;;;;7.60;6.57;;;22.30;99.90;;;;;;6229525;28;89429;-69
2023/09/26 00:24:53;;;;;;;9.20;7.05;;;22.30;99.90;;;;;;6230808;28;89070;-68
2023/09/26 00:27:55;;;;;;;7.18;6.47;;;22.30;99.90;;;;;;6232249;28;90049;-68
2023/09/26 00:30:59;;;;;;;7.35;6.55;;;22.30;99.90;;;;;;6244158;28;89141;-69
2023/09/26 00:34:01;;;;;;;6.75;6.05;;;22.30;99.90;;;;;;6233312;27;89076;-68
2023/09/26 00:37:04;;;;;;;7.45;6.50;;;22.30;99.90;;;;;;6221971;28;89762;-68
2023/09/26 00:40:12;;;;;;;6.82;6.13;;;22.30;99.90;;;;;;6211519;28;89051;-68
2023/09/26 00:43:22;;;;;;;7.57;6.57;;;22.30;99.90;;;;;;6230325;28;87131;-68
2023/09/26 00:46:24;;;;;;;9.40;6.68;;;22.20;99.90;;;;;;6232970;28;89287;-68
2023/09/26 00:49:27;;;;;;;7.13;6.20;;;22.30;99.90;;;;;;6232514;28;88474;-68
2023/09/26 00:52:32;;;;;;;6.82;5.82;;;22.30;99.90;;;;;;6226457;28;89257;-68
2023/09/26 00:55:34;;;;;;;7.07;6.38;;;22.30;99.90;;;;;;6230335;28;89412;-68
2023/09/26 00:58:36;;;;;;;8.02;6.07;;;22.20;99.90;;;;;;6226910;28;89899;-68
2023/09/26 01:01:40;;;;;;;7.15;6.20;;;22.20;99.90;;;;;;6227994;28;89353;-68
2023/09/26 01:04:42;;;;;;;6.63;5.90;;;22.20;99.90;;;;;;6216625;28;89041;-68
2023/09/26 01:07:46;;;;;;;6.78;6.03;;;22.30;99.90;;;;;;6222333;28;89074;-68
2023/09/26 01:10:49;;;;;;;8.15;6.75;;;22.20;99.90;;;;;;6217717;28;89162;-69
2023/09/26 01:13:50;;;;;;;6.65;6.00;;;22.20;99.90;;;;;;6231736;28;89003;-68
2023/09/26 01:16:55;;;;;;;6.75;6.05;;;22.20;99.90;;;;;;6222081;28;89062;-68
2023/09/26 01:19:57;;;;;;;9.70;6.38;;;22.20;99.90;;;;;;6228306;28;88299;-68
2023/09/26 01:23:05;;;;;;;6.80;6.10;;;22.20;99.90;;;;;;6228914;28;89182;-68
2023/09/26 01:26:09;;;;;;;7.28;6.40;;;22.20;99.90;;;;;;6222454;28;88987;-69
2023/09/26 01:29:11;;;;;;;6.80;5.95;;;22.20;99.90;;;;;;6226624;28;90256;-69
2023/09/26 01:32:13;;;;;;;6.82;5.70;;;22.20;99.90;;;;;;6230728;28;88047;-69
2023/09/26 01:35:16;;;;;;;6.40;5.68;;;22.20;99.90;;;;;;6224017;27;88743;-68
2023/09/26 01:38:19;;;;;;;6.68;5.82;;;22.20;99.90;;;;;;6233986;28;88990;-68
2023/09/26 01:41:22;;;;;;;6.57;5.72;;;22.20;99.90;;;;;;6224222;28;88817;-68
2023/09/26 01:44:24;;;;;;;9.65;6.55;;;22.20;99.90;;;;;;6230541;28;89083;-69
2023/09/26 01:47:39;;;;;;;6.00;5.40;;;22.20;99.90;;;;;;6230315;28;89097;-69
2023/09/26 01:50:41;;;;;;;6.22;5.55;;;22.20;99.90;;;;;;6231312;28;89951;-68
2023/09/26 01:53:43;;;;;;;6.65;5.90;;;22.20;99.90;;;;;;6218942;28;89030;-68
2023/09/26 01:56:47;;;;;;;6.82;5.93;;;22.20;99.90;;;;;;6208994;28;88975;-68
2023/09/26 01:59:49;;;;;;;6.80;5.85;;;22.20;99.90;;;;;;6223416;28;88837;-69
2023/09/26 02:02:52;;;;;;;7.13;6.18;;;22.20;99.90;;;;;;6231075;28;89050;-68
2023/09/26 02:05:58;;;;;;;6.82;6.03;;;22.20;99.90;;;;;;6232073;28;89268;-69
2023/09/26 02:09:00;;;;;;;6.68;6.00;;;22.20;99.90;;;;;;6214329;28;88773;-69
2023/09/26 02:12:07;;;;;;;15.68;8.05;;;22.20;99.90;;;;;;6226343;28;88994;-69
2023/09/26 02:15:11;;;;;;;9.50;6.78;;;22.20;99.90;;;;;;6223320;28;89157;-69
2023/09/26 02:18:14;;;;;;;5.90;5.28;;;22.20;99.90;;;;;;6233715;28;89079;-69
2023/09/26 02:21:16;;;;;;;6.57;5.75;;;22.20;99.90;;;;;;6229046;27;88433;-69
2023/09/26 02:24:18;;;;;;;6.25;5.65;;;22.20;99.90;;;;;;6243197;28;88995;-68
2023/09/26 02:27:22;;;;;;;6.25;5.65;;;22.20;99.90;;;;;;6229732;28;89318;-68
2023/09/26 02:30:25;;;;;;;6.53;5.82;;;22.20;99.90;;;;;;6222048;28;90337;-69
2023/09/26 02:33:27;;;;;;;6.60;5.90;;;22.10;99.90;;;;;;6224439;28;89354;-68
2023/09/26 02:36:29;;;;;;;7.03;5.75;;;22.20;99.90;;;;;;6231442;28;90186;-68
2023/09/26 02:39:31;;;;;;;6.05;5.45;;;22.10;99.90;;;;;;6225129;28;87979;-68
2023/09/26 02:42:34;;;;;;;8.45;6.32;;;22.20;99.90;;;;;;6231095;28;89129;-68
2023/09/26 02:45:36;;;;;;;7.88;6.43;;;22.20;99.90;;;;;;6206218;28;89090;-68
2023/09/26 02:48:38;;;;;;;6.63;6.03;;;22.10;99.90;;;;;;6233671;28;89913;-68
2023/09/26 02:51:40;;;;;;;6.50;5.90;;;22.10;99.90;;;;;;6241681;28;86594;-68
2023/09/26 02:54:42;;;;;;;6.78;6.07;;;22.10;99.90;;;;;;6228272;28;88777;-68
2023/09/26 02:57:45;;;;;;;7.18;6.32;;;22.10;99.90;;;;;;6233732;28;89092;-68
2023/09/26 03:00:49;;;;;;;6.88;6.07;;;22.10;99.90;;;;;;6239167;28;89893;-67
2023/09/26 03:03:52;;;;;;;7.45;6.20;;;22.10;99.90;;;;;;6221478;28;89080;-68
2023/09/26 03:06:54;;;;;;;6.90;6.18;;;22.10;99.90;;;;;;6227012;28;89381;-68
2023/09/26 03:09:56;;;;;;;7.15;6.45;;;22.10;99.90;;;;;;6231285;28;89022;-70
2023/09/26 03:12:59;;;;;;;6.60;6.00;;;22.10;99.90;;;;;;6234552;28;89300;-68
2023/09/26 03:16:02;;;;;;;8.00;5.93;;;22.10;99.90;;;;;;6231502;28;89042;-67
2023/09/26 03:19:05;;;;;;;6.90;6.07;;;22.10;99.90;;;;;;6232776;27;89209;-68
2023/09/26 03:22:08;;;;;;;6.78;6.10;;;22.10;99.90;;;;;;6229744;28;88386;-68
2023/09/26 03:25:11;;;;;;;6.20;5.60;;;22.10;99.90;;;;;;6229825;28;89415;-67
2023/09/26 03:28:15;;;;;;;6.85;6.25;;;22.10;99.90;;;;;;6234102;28;89170;-68
2023/09/26 03:31:17;;;;;;;6.82;6.10;;;22.10;99.90;;;;;;6236620;27;88928;-68
2023/09/26 03:34:19;;;;;;;7.53;6.53;;;22.10;99.90;;;;;;6223622;28;89113;-68
2023/09/26 03:37:21;;;;;;;7.20;6.40;;;22.10;99.90;;;;;;6235116;28;89071;-67
2023/09/26 03:40:24;;;;;;;7.30;6.30;;;22.10;99.90;;;;;;6224720;28;89083;-67
2023/09/26 03:43:28;;;;;;;6.65;6.03;;;22.10;99.90;;;;;;6212776;28;89339;-67
2023/09/26 03:46:30;;;;;;;7.20;6.20;;;22.10;99.90;;;;;;6222348;28;89357;-67
2023/09/26 03:49:32;;;;;;;7.55;6.30;;;22.10;99.90;;;;;;6231494;28;87965;-68
2023/09/26 03:52:34;;;;;;;7.40;6.70;;;22.10;99.90;;;;;;6238340;28;88003;-67
2023/09/26 03:55:36;;;;;;;6.85;6.25;;;22.10;99.90;;;;;;6233720;28;89080;-69
2023/09/26 03:58:39;;;;;;;7.47;6.68;;;22.10;99.90;;;;;;6227290;27;89025;-67
2023/09/26 04:01:42;;;;;;;7.80;6.97;;;22.00;99.90;;;;;;6230551;28;89938;-67
2023/09/26 04:04:44;;;;;;;7.32;6.63;;;22.10;99.90;;;;;;6232728;28;89201;-67
2023/09/26 04:07:46;;;;;;;7.93;6.82;;;22.10;99.90;;;;;;6232541;28;88779;-67
2023/09/26 04:10:48;;;;;;;6.95;6.25;;;22.10;99.90;;;;;;6234387;28;89131;-68
2023/09/26 04:13:51;;;;;;;7.00;6.30;;;22.10;99.90;;;;;;6227066;28;89068;-68
2023/09/26 04:16:53;;;;;;;7.18;6.47;;;22.00;99.90;;;;;;6220267;28;89689;-67
2023/09/26 04:19:55;;;;;;;7.03;6.15;;;22.10;99.90;;;;;;6217415;28;89031;-68
2023/09/26 04:22:57;;;;;;;7.15;6.32;;;22.10;99.90;;;;;;6230582;28;88283;-68
2023/09/26 04:25:59;;;;;;;6.72;6.03;;;22.10;99.90;;;;;;6220435;28;89154;-67
2023/09/26 04:29:04;;;;;;;7.85;6.25;;;22.10;99.90;;;;;;6231344;28;87912;-68
2023/09/26 04:32:07;;;;;;;6.75;5.90;;;22.10;99.90;;;;;;6227677;28;89990;-68
2023/09/26 04:35:09;;;;;;;6.45;5.85;;;22.10;99.90;;;;;;6235959;28;89071;-67
2023/09/26 04:38:11;;;;;;;7.07;6.25;;;22.10;99.90;;;;;;6239410;28;89024;-68
2023/09/26 04:41:14;;;;;;;6.72;6.13;;;22.10;99.90;;;;;;6227726;28;89028;-68
2023/09/26 04:44:18;;;;;;;7.10;6.40;;;22.00;99.90;;;;;;6227558;28;87960;-68
2023/09/26 04:47:21;;;;;;;6.25;5.65;;;22.00;99.90;;;;;;6233703;28;89194;-68
2023/09/26 04:50:23;;;;;;;6.55;5.95;;;22.00;99.90;;;;;;6233246;28;89130;-68
2023/09/26 04:53:25;;;;;;;6.85;6.15;;;22.00;99.90;;;;;;6233636;28;88501;-68
2023/09/26 04:56:27;;;;;;;7.05;6.30;;;22.00;99.90;;;;;;6232072;28;88999;-68
2023/09/26 04:59:30;;;;;;;7.03;6.32;;;22.00;99.90;;;;;;6223551;28;89050;-67
2023/09/26 05:02:32;;;;;;;6.88;5.93;;;22.00;99.90;;;;;;6222672;28;90569;-68
2023/09/26 05:05:34;;;;;;;7.28;6.50;;;22.00;99.90;;;;;;6221928;27;89221;-67
2023/09/26 05:08:37;;;;;;;7.88;6.68;;;22.00;99.90;;;;;;6223180;28;89136;-68
2023/09/26 05:11:39;;;;;;;7.72;6.25;;;22.00;99.90;;;;;;6220521;28;89400;-68
2023/09/26 05:14:42;;;;;;;8.57;6.63;;;22.00;99.90;;;;;;6219994;28;89056;-67
2023/09/26 05:17:48;;;;;;;6.03;5.45;;;22.00;99.90;;;;;;6232742;28;89289;-67
2023/09/26 05:20:50;;;;;;;6.30;5.70;;;22.00;99.90;;;;;;6207829;28;89090;-68
2023/09/26 05:23:53;;;;;;;6.22;5.63;;;22.00;99.90;;;;;;6251811;27;88391;-68
2023/09/26 05:26:55;;;;;;;6.32;5.72;;;22.00;99.90;;;;;;6233843;27;89114;-68
2023/09/26 05:29:58;;;;;;;6.47;5.88;;;22.00;99.90;;;;;;6242084;28;89042;-68
2023/09/26 05:33:00;;;;;;;6.55;5.80;;;22.00;99.90;;;;;;6218073;28;89977;-67
2023/09/26 05:36:04;;;;;;;6.88;6.20;;;22.00;99.90;;;;;;6226372;28;89186;-68
2023/09/26 05:39:06;;;;;;;6.55;5.95;;;22.00;99.90;;;;;;6227419;28;89148;-67
2023/09/26 05:42:10;;;;;;;6.75;6.03;;;22.00;99.90;;;;;;6225327;27;89002;-68
2023/09/26 05:45:14;;;;;;;6.38;5.78;;;22.00;99.90;;;;;;6230994;27;89167;-68
2023/09/26 05:48:16;;;;;;;6.45;5.85;;;22.00;99.90;;;;;;6232484;28;89549;-68
2023/09/26 05:51:18;;;;;;;6.70;5.97;;;22.00;99.90;;;;;;6229926;28;88577;-68
2023/09/26 05:54:20;;;;;;;6.13;5.53;;;22.00;99.90;;;;;;6229150;28;88329;-67
2023/09/26 05:57:22;;;;;;;6.35;5.70;;;22.00;99.90;;;;;;6216956;28;89069;-69
2023/09/26 06:00:25;;;;;;;7.07;6.25;;;22.00;99.90;;;;;;6218567;28;88974;-67
2023/09/26 06:03:27;;;;;;;7.10;6.30;;;22.00;99.90;;;;;;6220359;28;89990;-68
2023/09/26 06:06:29;;;;;;;6.68;5.97;;;22.00;99.90;;;;;;6226616;28;89066;-67
2023/09/26 06:09:31;;;;;;;6.80;6.10;;;22.00;99.90;;;;;;6230724;28;89240;-68
2023/09/26 06:12:33;;;;;;;6.20;5.60;;;22.00;99.90;;;;;;6213682;28;90461;-67
2023/09/26 06:15:37;;;;;;;6.07;5.57;;;21.90;99.90;;;;;;6227662;28;88967;-67
2023/09/26 06:18:39;;;;;;;6.65;5.95;;;22.00;99.90;;;;;;6227198;28;89664;-68
2023/09/26 06:21:42;;;;;;;6.72;6.03;;;21.90;99.90;;;;;;6228947;28;88994;-68
2023/09/26 06:24:44;;;;;;;7.07;6.38;;;22.00;99.90;;;;;;6223339;28;88443;-67
2023/09/26 06:27:46;;;;;;;9.00;6.97;;;22.00;99.90;;;;;;6217286;28;89156;-68
2023/09/26 06:30:50;;;;;;;7.25;6.45;;;22.00;99.90;;;;;;6230418;28;89146;-67
2023/09/26 06:33:52;;;;;;;7.18;6.32;;;22.00;99.90;;;;;;6227939;28;90023;-68
2023/09/26 06:36:54;;;;;;;7.45;6.53;;;22.00;99.90;;;;;;6237324;27;89040;-67
2023/09/26 06:40:00;;;;;;;6.40;5.80;;;22.00;99.90;;;;;;6228831;28;89433;-67
2023/09/26 06:43:02;;;;;;;7.07;6.38;;;22.00;99.90;;;;;;6229098;28;89127;-68
2023/09/26 06:46:08;;;;;;;6.13;5.53;;;21.90;99.90;;;;;;6227163;28;89328;-68
2023/09/26 06:49:10;;;;;;;7.47;6.53;;;21.90;99.90;;;;;;6238578;28;89146;-68
2023/09/26 06:52:12;;;;;;;7.10;6.40;;;22.00;99.90;;;;;;6227378;28;89107;-68
2023/09/26 06:55:15;;;;;;;8.30;7.10;;;22.00;99.90;;;;;;6239504;28;87645;-67
2023/09/26 06:58:16;;;;;;;10.65;7.35;;;22.00;99.90;;;;;;6247784;27;89334;-68
2023/09/26 07:01:20;;;;;;;7.82;6.80;;;21.90;99.90;;;;;;6239619;28;89936;-68
2023/09/26 07:04:22;;;;;;;7.43;6.18;;;21.90;99.90;;;;;;6240981;28;91067;-68
2023/09/26 07:07:24;;;;;;;6.60;6.00;;;22.00;99.90;;;;;;6233291;28;87954;-68
2023/09/26 07:10:26;;;;;;;7.43;6.72;;;21.90;99.90;;;;;;6238616;27;89154;-67
2023/09/26 07:13:28;;;;;;;6.55;5.95;;;21.90;99.90;;;;;;6234262;27;88990;-67
2023/09/26 07:16:33;;;;;;;8.57;7.03;;;22.00;99.90;;;;;;6227505;28;89354;-67
2023/09/26 07:19:35;;;;;;;9.00;6.93;;;21.90;99.90;;;;;;6227901;28;89026;-68
2023/09/26 07:22:39;;;;;;;7.30;6.47;;;21.90;99.90;;;;;;6219258;28;87848;-68
2023/09/26 07:25:41;;;;;;;7.07;6.45;;;22.00;99.90;;;;;;6214675;28;88493;-68
2023/09/26 07:28:44;;;;;;;6.97;6.20;;;21.90;99.90;;;;;;6252115;28;88996;-68
2023/09/26 07:31:48;;;;;;;6.72;6.13;;;22.00;99.90;;;;;;6240370;27;89313;-67
2023/09/26 07:34:50;;;;;;;7.00;6.30;;;22.00;99.90;;;;;;6224605;28;90128;-68
2023/09/26 07:37:52;;;;;;;7.03;6.15;;;21.90;99.90;;;;;;6222622;28;89095;-68
2023/09/26 07:40:54;;;;;;;7.72;6.88;;;22.00;99.90;;;;;;6222597;28;89005;-68
2023/09/26 07:43:56;;;;;;;6.95;6.22;;;21.90;99.90;;;;;;6216305;28;89048;-68
2023/09/26 07:46:59;;;;;;;7.57;6.30;;;21.90;99.90;;;;;;6229840;28;89188;-67
2023/09/26 07:50:01;;;;;;;7.50;6.80;;;21.90;99.90;;;;;;6229329;28;89214;-67
2023/09/26 07:53:04;;;;;;;6.63;6.03;;;21.90;99.90;;;;;;6216190;28;88945;-67
2023/09/26 07:56:06;;;;;;;8.52;6.85;;;21.90;99.90;;;;;;6223813;28;88327;-68
2023/09/26 07:59:07;;;;;;;7.22;6.63;;;21.90;99.90;;;;;;6222536;28;89013;-67
2023/09/26 08:02:11;;;;;;;7.30;6.60;;;21.90;99.90;;;;;;6234380;28;89155;-67
2023/09/26 08:05:13;;;;;;;7.18;6.47;;;21.90;99.90;;;;;;6239207;28;90129;-68
2023/09/26 08:08:15;;;;;;;6.82;6.22;;;21.90;99.90;;;;;;6244055;28;89034;-68
2023/09/26 08:11:17;;;;;;;6.85;6.25;;;21.90;99.90;;;;;;6226476;27;89089;-68
2023/09/26 08:14:19;;;;;;;6.43;5.82;;;21.90;99.90;;;;;;6222372;28;89049;-68
2023/09/26 08:17:22;;;;;;;6.80;6.10;;;22.00;99.90;;;;;;6234976;28;89231;-68
2023/09/26 08:20:25;;;;;;;6.90;6.20;;;21.90;99.90;;;;;;6232711;28;89007;-68
2023/09/26 08:23:28;;;;;;;6.97;6.35;;;21.90;99.90;;;;;;6230845;28;89018;-68
2023/09/26 08:26:30;;;;;;;6.68;6.07;;;22.00;99.90;;;;;;6228241;28;88491;-68
2023/09/26 08:29:32;;;;;;;7.10;6.40;;;21.90;99.90;;;;;;6222606;28;89072;-67
2023/09/26 08:32:35;;;;;;;7.68;6.40;;;21.90;99.90;;;;;;6224434;28;88978;-68
2023/09/26 08:35:37;;;;;;;7.10;6.40;;;22.00;99.90;;;;;;6221893;28;90031;-68
2023/09/26 08:38:39;;;;;;;6.97;6.30;;;22.00;99.90;;;;;;6230766;28;89369;-68
2023/09/26 08:41:44;;;;;;;8.13;6.95;;;21.90;99.90;;;;;;6220764;28;89144;-67
2023/09/26 08:44:46;;;;;;;7.43;6.35;;;21.90;99.90;;;;;;6229522;28;89151;-68
2023/09/26 08:47:50;;;;;;;7.10;6.38;;;21.90;99.90;;;;;;6232754;28;88960;-67
2023/09/26 08:50:52;;;;;;;6.90;6.20;;;21.90;99.90;;;;;;6232365;28;89033;-67
2023/09/26 08:53:54;;;;;;;7.32;6.38;;;21.90;99.90;;;;;;6225488;28;89048;-68
2023/09/26 08:56:56;;;;;;;6.85;6.25;;;21.90;99.90;;;;;;6235584;28;88355;-67
2023/09/26 09:00:01;;;;;;;6.72;6.13;;;21.90;99.90;;;;;;6229060;28;89717;-67
2023/09/26 09:03:05;;;;;;;7.40;6.70;;;21.90;99.90;;;;;;6225863;28;89169;-67
2023/09/26 09:06:08;;;;;;;6.72;6.13;;;21.90;99.90;;;;;;6227684;28;90208;-68
2023/09/26 09:09:13;;;;;;;7.10;6.40;;;21.90;99.90;;;;;;6229135;28;89370;-68
2023/09/26 09:12:22;;;;;;;6.95;6.35;;;21.90;99.90;;;;;;6235804;28;89175;-67
2023/09/26 09:15:24;;;;;;;7.03;6.32;;;21.90;99.90;;;;;;6228111;28;88992;-67
2023/09/26 09:18:32;;;;;;;6.72;6.07;;;21.90;99.90;;;;;;6224800;28;89100;-67
2023/09/26 09:21:34;;;;;;;7.22;6.53;;;21.90;99.90;;;;;;6230841;28;88991;-68
2023/09/26 09:24:38;;;;;;;6.53;5.93;;;21.90;99.90;;;;;;6221603;28;89479;-67
2023/09/26 09:27:43;;;;;;;6.97;6.28;;;21.90;99.90;;;;;;6221492;28;88277;-68
2023/09/26 09:30:45;;;;;;;7.05;6.35;;;21.90;99.90;;;;;;6231959;28;89512;-67
2023/09/26 09:33:52;;;;;;;6.63;6.03;;;21.90;99.90;;;;;;6209830;28;89347;-68
2023/09/26 09:36:55;;;;;;;6.40;5.80;;;21.90;99.90;;;;;;6207093;28;89743;-67
2023/09/26 09:39:58;;;;;;;6.43;5.82;;;21.90;99.90;;;;;;6219427;28;89302;-67
2023/09/26 09:43:00;;;;;;;6.20;5.60;;;21.90;99.90;;;;;;6208360;28;89123;-67
2023/09/26 09:46:07;;;;;;;6.55;5.95;;;21.90;99.90;;;;;;6220199;28;89134;-68
2023/09/26 09:49:12;;;;;;;6.47;5.85;;;21.90;99.90;;;;;;6218249;28;89153;-67
2023/09/26 09:52:17;;;;;;;6.75;6.07;;;21.90;99.90;;;;;;6220847;28;88945;-67
2023/09/26 09:55:22;;;;;;;6.95;6.25;;;21.90;99.90;;;;;;6235656;28;89075;-67
2023/09/26 09:58:28;;;;;;;7.00;6.30;;;21.90;99.90;;;;;;6231686;28;88300;-68
2023/09/26 10:01:33;;;;;;;6.78;6.10;;;21.90;99.90;;;;;;6233878;28;89262;-67
2023/09/26 10:04:37;;;;;;;7.25;6.55;;;21.90;99.90;;;;;;6215920;28;89316;-67
2023/09/26 10:07:41;;;;;;;7.20;6.28;;;21.90;99.90;;;;;;6216809;28;88901;-67
2023/09/26 10:10:44;;;;;;;6.93;6.22;;;21.90;99.90;;;;;;6224208;28;89496;-67
2023/09/26 10:13:47;;;;;;;6.78;6.18;;;21.90;99.90;;;;;;6223933;28;89034;-67
2023/09/26 10:16:49;;;;;;;6.53;5.93;;;21.90;99.90;;;;;;6222800;28;88922;-67
2023/09/26 10:19:52;;;;;;;6.60;6.00;;;21.90;99.90;;;;;;6230445;28;89048;-68
2023/09/26 10:23:10;;;;;;;6.40;5.80;;;21.90;99.90;;;;;;6229374;28;89427;-67
2023/09/26 10:26:12;;;;;;;6.78;6.07;;;21.90;99.90;;;;;;6225637;28;89629;-67
2023/09/26 10:29:23;;;;;;;6.82;6.10;;;21.90;99.90;;;;;;6230015;27;88293;-67
2023/09/26 10:32:33;;;;;;;8.65;6.72;;;21.90;99.90;;;;;;6225270;28;89531;-67
2023/09/26 10:35:43;;;;;;;6.63;5.90;;;21.90;99.90;;;;;;6218285;28;89054;-67
2023/09/26 10:38:58;;;;;;;6.68;6.07;;;21.90;99.90;;;;;;6238835;27;90274;-67
2023/09/26 10:42:11;;;;;;;6.80;6.18;;;21.90;99.90;;;;;;6207369;28;89036;-67
2023/09/26 10:45:14;;;;;;;7.03;6.05;;;21.90;99.90;;;;;;6228140;28;89250;-67
2023/09/26 10:48:20;;;;;;;7.00;6.40;;;21.90;99.90;;;;;;6230008;28;89076;-67
2023/09/26 10:51:24;;;;;;;6.53;5.90;;;21.90;99.90;;;;;;6229439;28;88853;-67
2023/09/26 10:54:26;;;;;;;6.85;6.15;;;21.90;99.90;;;;;;6229901;28;89053;-67
2023/09/26 10:57:29;;;;;;;6.72;6.03;;;21.90;99.90;;;;;;6229932;27;89475;-68
2023/09/26 11:00:31;;;;;;;6.47;5.88;;;21.90;99.90;;;;;;6229273;28;88877;-67
2023/09/26 11:03:33;;;;;;;7.20;6.50;;;21.90;99.90;;;;;;6232707;28;88999;-67
2023/09/26 11:06:37;;;;;;;7.05;6.35;;;22.00;99.90;;;;;;6217045;28;87953;-67
2023/09/26 11:09:41;;;;;;;6.78;6.07;;;21.90;99.90;;;;;;6228465;28;90318;-68
2023/09/26 11:12:44;;;;;;;6.22;5.72;;;21.90;99.90;;;;;;6224514;28;89293;-68
2023/09/26 11:15:46;;;;;;;6.40;5.80;;;21.90;99.90;;;;;;6221895;28;89050;-68
2023/09/26 11:18:54;;;;;;;6.43;5.82;;;21.90;99.90;;;;;;6227949;28;89067;-67
2023/09/26 11:21:59;;;;;;;6.40;5.80;;;21.90;99.90;;;;;;6236800;27;88967;-68
2023/09/26 11:25:08;;;;;;;6.43;5.82;;;22.00;99.90;;;;;;6233752;28;87956;-67
2023/09/26 11:28:10;;;;;;;6.63;6.03;;;21.90;99.90;;;;;;6228522;28;89169;-67
2023/09/26 11:31:15;;;;;;;6.18;5.57;;;21.90;99.90;;;;;;6222485;28;88359;-67
2023/09/26 11:34:18;;;;;;;6.47;5.88;;;21.90;99.90;;;;;;6212541;28;89127;-68
2023/09/26 11:37:23;;;;;;;8.60;6.65;;;22.00;99.90;;;;;;6221249;28;88970;-67
2023/09/26 11:40:26;;;;;;;7.90;6.45;;;21.90;99.90;;;;;;6243510;27;90001;-67
2023/09/26 11:43:28;;;;;;;6.28;5.68;;;22.00;99.90;;;;;;6233864;28;89476;-68
2023/09/26 11:46:30;;;;;;;6.43;5.82;;;21.90;99.90;;;;;;6220141;28;91745;-68
2023/09/26 11:49:32;;;;;;;6.80;6.10;;;22.00;99.90;;;;;;6232646;28;89026;-68
2023/09/26 11:52:36;;;;;;;6.00;5.50;;;22.00;99.90;;;;;;6226798;28;89287;-67
2023/09/26 11:55:38;;;;;;;6.30;5.80;;;21.90;99.90;;;;;;6237819;28;89198;-68
2023/09/26 11:58:40;;;;;;;6.00;5.40;;;21.90;99.90;;;;;;6238002;27;88059;-68
2023/09/26 12:01:42;;;;;;;6.80;6.10;;;21.90;99.90;;;;;;6225391;28;88363;-67
2023/09/26 12:04:44;;;;;;;6.47;5.82;;;21.90;99.90;;;;;;6229411;28;89224;-67
2023/09/26 12:07:48;;;;;;;6.55;5.85;;;21.90;99.90;;;;;;6237898;28;89049;-67
2023/09/26 12:10:50;;;;;;;6.30;5.70;;;21.90;99.90;;;;;;6237351;27;90006;-67
2023/09/26 12:13:52;;;;;;;6.30;5.70;;;22.00;99.90;;;;;;6237413;28;88998;-68
2023/09/26 12:16:56;;;;;;;6.22;5.63;;;22.00;99.90;;;;;;6233317;28;89182;-66
2023/09/26 12:19:58;;;;;;;6.47;5.88;;;22.00;99.90;;;;;;6229417;28;89182;-67
2023/09/26 12:23:02;;;;;;;7.18;5.45;;;22.00;99.90;;;;;;6221049;28;89157;-67
2023/09/26 12:26:05;;;;;;;9.13;5.82;;;22.00;99.90;;;;;;6214083;28;89179;-66
2023/09/26 12:29:07;;;;;;;5.70;5.18;;;22.00;99.90;;;;;;6221843;27;89170;-66
2023/09/26 12:32:09;;;;;;;6.05;5.55;;;22.00;99.90;;;;;;6226201;27;88291;-66
2023/09/26 12:35:11;;;;;;;5.60;5.05;;;22.00;99.90;;;;;;6220317;28;89455;-67
2023/09/26 12:38:14;;;;;;;5.85;5.30;;;22.00;99.90;;;;;;6221292;28;87971;-67
2023/09/26 12:41:16;;;;;;;5.65;5.15;;;22.00;99.90;;;;;;6208743;28;89966;-67
2023/09/26 12:44:18;;;;;;;8.60;6.18;;;22.00;99.90;;;;;;6231188;28;89180;-67
2023/09/26 12:47:21;;;;;;;7.60;5.63;;;22.00;99.90;;;;;;6218598;28;89112;-66
2023/09/26 12:50:24;;;;;;;10.57;6.22;;;22.00;99.90;;;;;;6232591;28;88948;-67
2023/09/26 12:57:08;;;;;;;12.65;6.65;;;22.00;99.90;;;;;;6227726;28;87350;-67
2023/09/26 13:00:12;;;;;;;9.63;6.57;;;22.00;99.90;;;;;;6232125;28;89083;-67
2023/09/26 13:03:15;;;;;;;18.73;8.50;;;22.00;99.90;;;;;;6229734;28;88394;-69
2023/09/26 13:06:17;;;;;;;32.35;12.43;;;22.00;99.90;;;;;;6229330;28;88000;-68
2023/09/26 13:09:20;;;;;;;41.28;13.68;;;22.00;99.90;;;;;;6223648;27;89520;-69
2023/09/26 13:12:23;;;;;;;41.80;14.40;;;22.00;99.90;;;;;;6230024;28;89988;-68
2023/09/26 13:15:28;;;;;;;36.05;13.23;;;22.00;99.90;;;;;;6226304;28;89126;-68
2023/09/26 13:18:30;;;;;;;35.85;14.23;;;22.00;99.90;;;;;;6228239;28;89406;-68
2023/09/26 13:21:32;;;;;;;28.98;12.50;;;22.00;99.90;;;;;;6223194;28;87919;-68
2023/09/26 13:24:36;;;;;;;32.88;12.38;;;22.00;99.90;;;;;;6228228;28;89081;-68
2023/09/26 13:27:38;;;;;;;24.08;11.75;;;22.00;99.90;;;;;;6229358;28;89004;-66
2023/09/26 13:30:40;;;;;;;20.15;10.63;;;22.00;99.90;;;;;;6211993;28;88944;-67
2023/09/26 13:33:42;;;;;;;20.17;10.55;;;22.00;99.90;;;;;;6224389;28;88339;-67
2023/09/26 13:36:44;;;;;;;22.52;10.73;;;22.00;99.90;;;;;;6217235;28;88933;-67
2023/09/26 13:39:47;;;;;;;18.92;10.23;;;22.00;99.90;;;;;;6231913;28;89429;-67
2023/09/26 13:42:49;;;;;;;18.45;9.85;;;22.00;99.90;;;;;;6230027;28;90071;-67
2023/09/26 13:45:52;;;;;;;19.95;10.02;;;22.00;99.90;;;;;;6234065;28;89078;-67
2023/09/26 13:48:54;;;;;;;19.83;10.07;;;22.00;99.90;;;;;;6226976;28;89419;-68
2023/09/26 13:51:57;;;;;;;19.13;9.63;;;22.00;99.90;;;;;;6228608;28;88992;-67
2023/09/26 13:55:01;;;;;;;16.70;9.95;;;22.00;99.90;;;;;;6226647;28;88001;-67
2023/09/26 13:58:03;;;;;;;17.58;9.25;;;22.00;99.90;;;;;;6229681;28;88306;-67
2023/09/26 14:01:05;;;;;;;16.50;9.55;;;22.10;99.90;;;;;;6244424;27;88675;-67
2023/09/26 14:04:07;;;;;;;19.73;9.52;;;22.10;99.90;;;;;;6236289;27;87949;-67
2023/09/26 14:07:10;;;;;;;17.88;9.55;;;22.10;99.90;;;;;;6218016;28;89077;-67
2023/09/26 14:10:13;;;;;;;17.60;9.65;;;22.20;99.90;;;;;;6214553;28;87919;-67
2023/09/26 14:13:15;;;;;;;17.05;9.35;;;22.20;99.90;;;;;;6222075;28;89399;-67
2023/09/26 14:16:17;;;;;;;16.77;9.48;;;22.20;99.90;;;;;;6228335;28;89305;-66
2023/09/26 14:19:19;;;;;;;14.77;9.05;;;22.20;99.90;;;;;;6229944;28;89263;-67
2023/09/26 14:22:21;;;;;;;15.38;8.75;;;22.20;99.90;;;;;;6206908;28;89076;-67
2023/09/26 14:25:24;;;;;;;13.98;8.73;;;22.20;99.90;;;;;;6237380;28;88051;-66
2023/09/26 14:28:27;;;;;;;17.52;9.02;;;22.10;99.90;;;;;;6245403;27;89128;-67
2023/09/26 14:31:29;;;;;;;17.02;8.95;;;22.10;99.90;;;;;;6224356;28;89167;-66
2023/09/26 14:34:31;;;;;;;12.60;8.63;;;22.10;99.90;;;;;;6223324;28;88776;-66
2023/09/26 14:37:33;;;;;;;11.73;8.25;;;22.10;99.90;;;;;;6242977;28;89003;-67
2023/09/26 14:40:36;;;;;;;15.35;9.07;;;22.10;99.90;;;;;;6229173;28;89265;-66
2023/09/26 14:43:38;;;;;;;13.82;8.77;;;22.10;99.90;;;;;;6228048;28;89944;-67
2023/09/26 14:46:41;;;;;;;14.98;8.65;;;22.10;99.90;;;;;;6230282;28;89104;-67
2023/09/26 14:49:43;;;;;;;14.15;8.45;;;22.10;99.90;;;;;;6233421;28;89007;-67
2023/09/26 14:52:45;;;;;;;14.80;8.40;;;22.10;99.90;;;;;;6233561;27;88040;-66
2023/09/26 14:55:49;;;;;;;12.32;8.18;;;22.10;99.90;;;;;;6224926;27;88257;-66
2023/09/26 14:58:51;;;;;;;13.02;8.02;;;22.10;99.90;;;;;;6215292;28;89042;-66
2023/09/26 15:01:54;;;;;;;12.43;7.63;;;22.10;99.90;;;;;;6235554;28;87962;-66
2023/09/26 15:04:55;;;;;;;12.95;7.65;;;22.10;99.90;;;;;;6225482;28;87036;-67
2023/09/26 15:07:58;;;;;;;14.85;8.18;;;22.10;99.90;;;;;;6228957;28;89030;-66
2023/09/26 15:11:01;;;;;;;14.05;7.95;;;22.10;99.90;;;;;;6217907;28;87940;-67
2023/09/26 15:14:03;;;;;;;14.48;8.18;;;22.00;99.90;;;;;;6211796;28;90029;-66
2023/09/26 15:17:06;;;;;;;11.05;7.72;;;22.10;99.90;;;;;;6214679;28;89024;-66
2023/09/26 15:20:10;;;;;;;10.25;7.82;;;22.10;99.90;;;;;;6241945;28;89086;-66
2023/09/26 15:23:11;;;;;;;13.20;7.63;;;22.10;99.90;;;;;;6224586;28;89287;-66
2023/09/26 15:26:15;;;;;;;11.50;7.70;;;22.10;99.90;;;;;;6207557;28;89097;-66
2023/09/26 15:29:17;;;;;;;11.55;7.65;;;22.10;99.90;;;;;;6215918;28;88048;-66
2023/09/26 15:32:19;;;;;;;12.48;7.70;;;22.00;99.90;;;;;;6219299;28;89096;-66
2023/09/26 15:35:21;;;;;;;11.02;7.65;;;22.10;99.90;;;;;;6206897;28;88377;-66
2023/09/26 15:38:23;;;;;;;10.82;7.22;;;22.10;99.90;;;;;;6220012;28;89104;-66
2023/09/26 15:41:26;;;;;;;13.38;8.02;;;22.10;99.90;;;;;;6227954;28;87779;-66
2023/09/26 15:44:39;;;;;;;12.80;7.72;;;22.10;99.90;;;;;;6215910;28;90301;-66
2023/09/26 15:47:40;;;;;;;11.40;7.57;;;22.10;99.90;;;;;;6229060;28;87936;-68
2023/09/26 15:50:42;;;;;;;10.20;7.07;;;22.10;99.90;;;;;;6230087;28;89327;-66
2023/09/26 15:53:45;;;;;;;11.35;7.45;;;22.10;99.90;;;;;;6235114;28;87122;-68
2023/09/26 15:56:49;;;;;;;12.95;7.68;;;22.10;99.90;;;;;;6238966;28;88945;-68